createdAt,value
2024-04-30T00:00:18.395Z,36.74
2024-04-30T00:01:18.458Z,38.35
2024-04-30T00:02:18.334Z,36.25
2024-04-30T00:03:18.345Z,36.74
2024-04-30T00:04:18.350Z,37.06
2024-04-30T00:05:18.323Z,36.90
2024-04-30T00:06:18.302Z,37.54
2024-04-30T00:07:18.300Z,37.54
2024-04-30T00:08:18.247Z,37.87
2024-04-30T00:09:18.254Z,36.58
2024-04-30T00:10:18.362Z,37.06
2024-04-30T00:11:18.234Z,56.88
2024-04-30T00:12:18.211Z,37.38
2024-04-30T00:13:18.193Z,37.22
2024-04-30T00:14:18.232Z,37.71
2024-04-30T00:15:18.368Z,37.87
2024-04-30T00:16:18.170Z,39.64
2024-04-30T00:17:18.143Z,38.19
2024-04-30T00:18:18.104Z,38.83
2024-04-30T00:19:18.154Z,36.90
2024-04-30T00:20:18.171Z,36.58
2024-04-30T00:21:18.064Z,37.22
2024-04-30T00:22:18.069Z,37.71
2024-04-30T00:23:18.033Z,36.90
2024-04-30T00:24:18.050Z,37.06
2024-04-30T00:25:18.181Z,36.58
2024-04-30T00:26:18.013Z,36.25
2024-04-30T00:27:18.007Z,36.74
2024-04-30T00:28:18.095Z,37.54
2024-04-30T00:29:18.017Z,38.83
2024-04-30T00:30:17.943Z,37.06
2024-04-30T00:31:17.955Z,36.90
2024-04-30T00:32:17.996Z,36.90
2024-04-30T00:33:17.923Z,37.22
2024-04-30T00:34:17.935Z,36.58
2024-04-30T00:35:17.876Z,36.58
2024-04-30T00:36:17.875Z,36.42
2024-04-30T00:37:17.878Z,36.74
2024-04-30T00:38:17.872Z,38.03
2024-04-30T00:39:17.837Z,37.54
2024-04-30T00:40:17.822Z,37.87
2024-04-30T00:41:17.798Z,36.74
2024-04-30T00:42:17.825Z,36.25
2024-04-30T00:43:17.788Z,37.22
2024-04-30T00:44:17.762Z,37.87
2024-04-30T00:45:17.755Z,36.90
2024-04-30T00:46:17.771Z,37.54
2024-04-30T00:47:17.754Z,38.83
2024-04-30T00:48:17.863Z,46.08
2024-04-30T00:49:17.741Z,49.79
2024-04-30T00:50:17.680Z,49.31
2024-04-30T00:51:17.671Z,47.53
2024-04-30T00:52:17.741Z,46.25
2024-04-30T00:53:17.638Z,47.21
2024-04-30T00:54:17.630Z,47.05
2024-04-30T00:55:17.630Z,46.08
2024-04-30T00:56:17.636Z,43.34
2024-04-30T00:57:17.600Z,44.47
2024-04-30T00:58:17.614Z,45.12
2024-04-30T00:59:17.539Z,43.18
2024-04-30T01:00:17.572Z,41.73
2024-04-30T01:01:17.543Z,39.48
2024-04-30T01:02:17.557Z,39.16
2024-04-30T01:03:17.525Z,38.67
2024-04-30T01:04:17.542Z,38.03
2024-04-30T01:05:17.473Z,37.22
2024-04-30T01:06:17.481Z,36.42
2024-04-30T01:07:17.509Z,40.12
2024-04-30T01:08:17.440Z,42.06
2024-04-30T01:09:17.416Z,39.96
2024-04-30T01:10:17.480Z,43.99
2024-04-30T01:11:17.425Z,39.80
2024-04-30T01:12:17.384Z,38.83
2024-04-30T01:13:17.390Z,38.83
2024-04-30T01:14:17.366Z,41.73
2024-04-30T01:15:17.467Z,40.12
2024-04-30T01:16:17.379Z,38.35
2024-04-30T01:17:17.400Z,37.22
2024-04-30T01:18:17.288Z,40.28
2024-04-30T01:19:17.376Z,38.51
2024-04-30T01:20:17.291Z,37.06
2024-04-30T01:21:17.248Z,38.67
2024-04-30T01:22:17.310Z,37.38
2024-04-30T01:23:17.249Z,37.22
2024-04-30T01:24:17.229Z,37.87
2024-04-30T01:25:17.225Z,37.71
2024-04-30T01:26:17.193Z,37.22
2024-04-30T01:27:17.181Z,37.54
2024-04-30T01:28:17.200Z,37.71
2024-04-30T01:29:17.135Z,39.32
2024-04-30T01:30:17.165Z,42.54
2024-04-30T01:31:17.151Z,38.03
2024-04-30T01:32:17.121Z,39.32
2024-04-30T01:33:17.111Z,37.38
2024-04-30T01:34:17.095Z,38.03
2024-04-30T01:35:17.072Z,38.67
2024-04-30T01:36:17.054Z,38.03
2024-04-30T01:37:17.124Z,39.48
2024-04-30T01:38:17.019Z,43.02
2024-04-30T01:39:17.022Z,40.77
2024-04-30T01:40:17.086Z,38.83
2024-04-30T01:41:16.982Z,41.73
2024-04-30T01:42:16.994Z,41.41
2024-04-30T01:43:16.958Z,37.87
2024-04-30T01:44:16.960Z,38.99
2024-04-30T01:47:38.320Z,37.22
2024-04-30T01:48:38.253Z,38.99
2024-04-30T01:49:38.276Z,40.28
2024-04-30T01:50:38.287Z,37.54
2024-04-30T01:51:38.184Z,39.96
2024-04-30T01:52:38.216Z,40.12
2024-04-30T01:53:38.171Z,39.80
2024-04-30T01:54:38.152Z,39.32
2024-04-30T01:55:38.182Z,43.34
2024-04-30T01:56:38.132Z,45.76
2024-04-30T01:57:38.110Z,40.61
2024-04-30T01:58:38.170Z,38.99
2024-04-30T01:59:38.113Z,37.71
2024-04-30T02:00:38.147Z,38.19
2024-04-30T02:01:38.109Z,41.57
2024-04-30T02:02:38.137Z,41.25
2024-04-30T02:03:38.037Z,40.61
2024-04-30T02:04:42.723Z,39.64
2024-04-30T02:05:39.005Z,40.93
2024-04-30T02:06:37.991Z,42.86
2024-04-30T02:07:38.023Z,40.61
2024-04-30T02:08:38.012Z,39.32
2024-04-30T02:09:37.951Z,39.80
2024-04-30T02:10:38.014Z,40.12
2024-04-30T02:11:37.932Z,39.32
2024-04-30T02:12:37.929Z,40.12
2024-04-30T02:13:37.924Z,39.80
2024-04-30T02:14:37.909Z,42.06
2024-04-30T02:15:37.880Z,41.25
2024-04-30T02:16:37.930Z,41.89
2024-04-30T02:17:37.984Z,38.67
2024-04-30T02:18:37.853Z,40.44
2024-04-30T02:19:37.874Z,39.80
2024-04-30T02:20:37.809Z,43.99
2024-04-30T02:21:37.807Z,41.57
2024-04-30T02:22:37.840Z,41.73
2024-04-30T02:23:37.775Z,40.28
2024-04-30T02:24:37.748Z,39.32
2024-04-30T02:25:37.770Z,39.48
2024-04-30T02:26:37.937Z,41.89
2024-04-30T02:27:37.710Z,38.51
2024-04-30T02:28:37.723Z,38.83
2024-04-30T02:29:37.680Z,40.28
2024-04-30T02:30:37.703Z,40.93
2024-04-30T02:31:37.720Z,43.02
2024-04-30T02:32:37.751Z,39.80
2024-04-30T02:33:37.670Z,43.51
2024-04-30T02:34:37.702Z,45.44
2024-04-30T02:35:37.622Z,40.61
2024-04-30T02:36:37.605Z,39.32
2024-04-30T02:37:37.610Z,41.25
2024-04-30T02:38:37.592Z,41.09
2024-04-30T02:39:37.545Z,39.32
2024-04-30T02:40:37.625Z,41.25
2024-04-30T02:41:37.539Z,43.18
2024-04-30T02:42:37.516Z,43.51
2024-04-30T02:43:37.580Z,42.22
2024-04-30T02:44:37.526Z,42.22
2024-04-30T02:45:37.514Z,41.25
2024-04-30T02:46:37.509Z,45.28
2024-04-30T02:47:37.527Z,43.02
2024-04-30T02:48:37.442Z,42.06
2024-04-30T02:49:37.506Z,42.38
2024-04-30T02:50:37.443Z,43.51
2024-04-30T02:51:37.382Z,43.99
2024-04-30T02:52:37.488Z,41.73
2024-04-30T02:53:37.382Z,43.51
2024-04-30T02:54:37.364Z,45.28
2024-04-30T02:55:38.427Z,42.86
2024-04-30T02:56:37.326Z,41.57
2024-04-30T02:57:37.306Z,43.99
2024-04-30T02:58:37.392Z,44.63
2024-04-30T02:59:37.311Z,42.06
2024-04-30T03:00:37.357Z,44.63
2024-04-30T03:01:37.288Z,41.09
2024-04-30T03:02:37.352Z,41.09
2024-04-30T03:03:37.307Z,40.44
2024-04-30T03:04:37.299Z,43.67
2024-04-30T03:05:37.228Z,41.73
2024-04-30T03:06:37.212Z,42.54
2024-04-30T03:07:37.197Z,41.57
2024-04-30T03:08:37.287Z,42.06
2024-04-30T03:09:37.141Z,43.51
2024-04-30T03:10:37.215Z,46.89
2024-04-30T03:11:37.136Z,43.02
2024-04-30T03:12:37.170Z,53.01
2024-04-30T03:13:37.243Z,43.99
2024-04-30T03:14:37.105Z,41.73
2024-04-30T03:15:37.098Z,43.83
2024-04-30T03:16:37.195Z,41.09
2024-04-30T03:17:37.188Z,45.28
2024-04-30T03:18:37.156Z,42.86
2024-04-30T03:19:37.289Z,40.12
2024-04-30T03:20:37.029Z,44.63
2024-04-30T03:21:36.978Z,48.02
2024-04-30T03:22:37.092Z,42.06
2024-04-30T03:23:36.992Z,46.89
2024-04-30T03:24:36.963Z,49.79
2024-04-30T03:25:37.054Z,45.92
2024-04-30T03:26:36.939Z,45.44
2024-04-30T03:27:37.091Z,48.82
2024-04-30T03:28:37.064Z,53.01
2024-04-30T03:29:36.998Z,44.79
2024-04-30T03:30:36.916Z,55.27
2024-04-30T03:31:36.992Z,45.92
2024-04-30T03:32:37.097Z,58.81
2024-04-30T03:33:36.973Z,56.88
2024-04-30T03:34:36.944Z,53.01
2024-04-30T03:35:36.863Z,48.66
2024-04-30T03:36:36.823Z,48.34
2024-04-30T03:37:36.862Z,51.08
2024-04-30T03:38:36.842Z,57.69
2024-04-30T03:39:36.860Z,56.07
2024-04-30T03:40:36.994Z,58.01
2024-04-30T03:41:36.750Z,55.91
2024-04-30T03:42:36.714Z,47.70
2024-04-30T03:43:36.830Z,48.98
2024-04-30T03:44:36.772Z,50.11
2024-04-30T03:45:36.744Z,59.78
2024-04-30T03:46:36.809Z,61.87
2024-04-30T03:47:36.860Z,44.47
2024-04-30T03:48:36.708Z,46.57
2024-04-30T03:49:36.787Z,59.62
2024-04-30T03:50:36.683Z,60.59
2024-04-30T03:51:36.696Z,46.41
2024-04-30T03:52:36.684Z,52.53
2024-04-30T03:53:36.636Z,44.63
2024-04-30T03:54:36.649Z,51.88
2024-04-30T03:55:36.681Z,42.70
2024-04-30T03:56:36.599Z,47.21
2024-04-30T03:57:36.528Z,44.63
2024-04-30T03:58:36.643Z,43.67
2024-04-30T03:59:36.545Z,49.79
2024-04-30T04:00:36.611Z,43.02
2024-04-30T04:01:36.492Z,54.95
2024-04-30T04:02:36.540Z,42.70
2024-04-30T04:03:36.589Z,45.12
2024-04-30T04:04:36.460Z,42.38
2024-04-30T04:05:36.488Z,51.72
2024-04-30T04:06:36.384Z,60.26
2024-04-30T04:07:36.581Z,57.20
2024-04-30T04:08:36.437Z,47.05
2024-04-30T04:09:36.425Z,46.41
2024-04-30T04:10:36.501Z,42.22
2024-04-30T04:11:36.427Z,46.41
2024-04-30T04:12:36.337Z,49.95
2024-04-30T04:13:36.402Z,44.47
2024-04-30T04:14:36.371Z,42.22
2024-04-30T04:15:36.359Z,42.54
2024-04-30T04:16:36.295Z,42.22
2024-04-30T04:17:36.442Z,43.51
2024-04-30T04:18:36.281Z,48.34
2024-04-30T04:19:36.284Z,48.66
2024-04-30T04:20:36.209Z,42.54
2024-04-30T04:21:36.268Z,44.63
2024-04-30T04:22:36.382Z,43.34
2024-04-30T04:23:36.168Z,42.54
2024-04-30T04:24:36.239Z,46.89
2024-04-30T04:25:36.292Z,43.02
2024-04-30T04:26:36.183Z,42.06
2024-04-30T04:27:36.138Z,42.22
2024-04-30T04:28:36.249Z,58.17
2024-04-30T04:29:36.162Z,44.47
2024-04-30T04:30:36.087Z,44.31
2024-04-30T04:31:36.275Z,45.12
2024-04-30T04:32:36.192Z,42.22
2024-04-30T04:33:36.068Z,42.54
2024-04-30T04:34:36.093Z,47.53
2024-04-30T04:35:36.007Z,42.22
2024-04-30T04:36:36.518Z,46.89
2024-04-30T04:37:36.103Z,43.18
2024-04-30T04:38:36.000Z,42.54
2024-04-30T04:39:35.966Z,44.79
2024-04-30T04:40:36.026Z,45.28
2024-04-30T04:41:36.109Z,42.54
2024-04-30T04:42:35.987Z,42.86
2024-04-30T04:43:36.001Z,48.02
2024-04-30T04:44:35.926Z,42.70
2024-04-30T04:45:35.870Z,42.86
2024-04-30T04:46:35.934Z,61.23
2024-04-30T04:47:35.996Z,49.79
2024-04-30T04:48:35.904Z,47.05
2024-04-30T04:49:35.947Z,44.63
2024-04-30T04:50:35.829Z,43.34
2024-04-30T04:51:35.813Z,46.89
2024-04-30T04:52:35.807Z,44.31
2024-04-30T04:53:35.806Z,55.75
2024-04-30T04:54:35.834Z,42.70
2024-04-30T04:55:35.830Z,43.34
2024-04-30T04:56:35.838Z,43.34
2024-04-30T04:57:35.808Z,51.08
2024-04-30T04:58:35.911Z,47.70
2024-04-30T04:59:35.772Z,44.47
2024-04-30T05:00:35.735Z,45.28
2024-04-30T05:01:35.778Z,43.83
2024-04-30T05:02:35.829Z,44.63
2024-04-30T05:03:35.755Z,45.92
2024-04-30T05:04:35.682Z,47.05
2024-04-30T05:05:35.683Z,46.57
2024-04-30T05:06:35.683Z,46.25
2024-04-30T05:07:35.735Z,45.28
2024-04-30T05:08:35.571Z,48.02
2024-04-30T05:09:35.546Z,50.27
2024-04-30T05:10:35.654Z,47.21
2024-04-30T05:11:35.588Z,46.73
2024-04-30T05:12:35.543Z,49.95
2024-04-30T05:13:35.555Z,50.76
2024-04-30T05:14:35.469Z,47.37
2024-04-30T05:15:35.473Z,48.98
2024-04-30T05:16:35.488Z,46.89
2024-04-30T05:17:35.569Z,48.18
2024-04-30T05:18:35.435Z,47.53
2024-04-30T05:19:35.559Z,46.89
2024-04-30T05:20:35.420Z,45.92
2024-04-30T05:21:35.417Z,43.99
2024-04-30T05:22:35.465Z,44.63
2024-04-30T05:23:35.362Z,47.37
2024-04-30T05:24:35.340Z,43.51
2024-04-30T05:25:35.419Z,43.83
2024-04-30T05:26:35.391Z,45.60
2024-04-30T05:27:35.305Z,44.63
2024-04-30T05:28:35.359Z,47.37
2024-04-30T05:29:35.320Z,53.33
2024-04-30T05:30:35.298Z,49.47
2024-04-30T05:31:35.346Z,48.98
2024-04-30T05:32:35.333Z,53.33
2024-04-30T05:33:35.309Z,46.25
2024-04-30T05:34:35.273Z,44.96
2024-04-30T05:35:35.222Z,48.66
2024-04-30T05:36:35.191Z,45.28
2024-04-30T05:37:35.253Z,44.47
2024-04-30T05:38:35.168Z,46.57
2024-04-30T05:39:35.253Z,51.08
2024-04-30T05:40:35.201Z,51.40
2024-04-30T05:41:35.132Z,48.98
2024-04-30T05:42:35.120Z,47.21
2024-04-30T05:43:35.150Z,45.92
2024-04-30T05:44:35.099Z,50.92
2024-04-30T05:45:35.096Z,47.21
2024-04-30T05:46:35.119Z,48.34
2024-04-30T05:47:35.077Z,44.79
2024-04-30T05:48:35.020Z,49.63
2024-04-30T05:49:35.194Z,51.40
2024-04-30T05:50:35.034Z,51.24
2024-04-30T05:51:34.987Z,48.98
2024-04-30T05:52:35.132Z,51.24
2024-04-30T05:53:34.983Z,48.02
2024-04-30T05:54:34.992Z,49.79
2024-04-30T05:55:35.017Z,48.34
2024-04-30T05:56:34.968Z,47.21
2024-04-30T05:57:34.906Z,45.60
2024-04-30T05:58:35.057Z,50.43
2024-04-30T05:59:34.949Z,49.79
2024-04-30T06:00:34.902Z,47.70
2024-04-30T06:01:34.868Z,49.31
2024-04-30T06:02:34.849Z,58.01
2024-04-30T06:03:34.903Z,49.15
2024-04-30T06:04:34.965Z,63.33
2024-04-30T06:05:34.874Z,46.89
2024-04-30T06:06:34.837Z,49.15
2024-04-30T06:07:34.837Z,61.55
2024-04-30T06:08:36.641Z,51.40
2024-04-30T06:09:34.866Z,51.08
2024-04-30T06:10:34.953Z,56.07
2024-04-30T06:11:34.900Z,51.88
2024-04-30T06:12:34.855Z,52.53
2024-04-30T06:13:34.956Z,51.24
2024-04-30T06:14:34.824Z,48.34
2024-04-30T06:15:34.808Z,45.28
2024-04-30T06:16:34.738Z,52.05
2024-04-30T06:17:34.850Z,60.59
2024-04-30T06:18:34.815Z,46.89
2024-04-30T06:19:34.743Z,43.34
2024-04-30T06:20:34.678Z,45.92
2024-04-30T06:21:38.200Z,47.53
2024-04-30T06:22:34.919Z,46.08
2024-04-30T06:23:34.606Z,45.76
2024-04-30T06:24:34.546Z,43.83
2024-04-30T06:25:34.577Z,50.76
2024-04-30T06:26:34.531Z,46.73
2024-04-30T06:27:34.514Z,44.79
2024-04-30T06:28:35.146Z,47.21
2024-04-30T06:29:34.502Z,43.99
2024-04-30T06:30:34.488Z,59.46
2024-04-30T06:31:34.642Z,49.15
2024-04-30T06:32:34.556Z,44.31
2024-04-30T06:33:34.513Z,46.25
2024-04-30T06:34:34.573Z,45.76
2024-04-30T06:35:34.418Z,44.79
2024-04-30T06:36:34.393Z,44.15
2024-04-30T06:37:34.426Z,44.63
2024-04-30T06:38:34.387Z,51.88
2024-04-30T06:39:34.368Z,46.57
2024-04-30T06:40:34.376Z,52.21
2024-04-30T06:41:34.380Z,60.26
2024-04-30T06:42:34.324Z,56.56
2024-04-30T06:43:34.517Z,55.91
2024-04-30T06:44:34.307Z,52.85
2024-04-30T06:45:34.316Z,49.79
2024-04-30T06:46:34.387Z,60.10
2024-04-30T06:47:34.441Z,55.11
2024-04-30T06:48:34.448Z,47.05
2024-04-30T06:49:34.301Z,57.20
2024-04-30T06:50:34.254Z,50.27
2024-04-30T06:51:34.219Z,48.82
2024-04-30T06:52:34.215Z,48.50
2024-04-30T06:53:34.200Z,47.05
2024-04-30T06:54:34.225Z,47.53
2024-04-30T06:55:34.270Z,53.66
2024-04-30T06:56:34.183Z,44.96
2024-04-30T06:57:34.122Z,47.53
2024-04-30T06:58:34.139Z,46.25
2024-04-30T06:59:34.142Z,42.22
2024-04-30T07:00:34.152Z,43.51
2024-04-30T07:01:34.138Z,47.05
2024-04-30T07:02:34.096Z,43.51
2024-04-30T07:03:34.078Z,43.83
2024-04-30T07:04:34.164Z,43.51
2024-04-30T07:05:34.104Z,54.79
2024-04-30T07:06:34.030Z,51.88
2024-04-30T07:07:34.120Z,56.88
2024-04-30T07:08:34.023Z,45.28
2024-04-30T07:09:34.000Z,44.15
2024-04-30T07:10:33.980Z,52.85
2024-04-30T07:11:33.947Z,44.79
2024-04-30T07:12:33.935Z,47.53
2024-04-30T07:13:34.040Z,65.42
2024-04-30T07:14:33.921Z,57.36
2024-04-30T07:15:33.905Z,57.04
2024-04-30T07:16:33.958Z,60.59
2024-04-30T07:17:33.972Z,45.60
2024-04-30T07:18:34.016Z,43.99
2024-04-30T07:19:34.099Z,54.30
2024-04-30T07:20:33.800Z,44.15
2024-04-30T07:21:33.795Z,43.18
2024-04-30T07:22:33.861Z,42.70
2024-04-30T07:23:33.781Z,47.53
2024-04-30T07:24:33.778Z,46.89
2024-04-30T07:25:33.834Z,43.99
2024-04-30T07:26:33.728Z,56.88
2024-04-30T07:27:33.743Z,53.17
2024-04-30T07:28:33.745Z,42.22
2024-04-30T07:29:33.698Z,55.59
2024-04-30T07:30:33.704Z,51.72
2024-04-30T07:31:33.840Z,44.79
2024-04-30T07:32:33.842Z,46.57
2024-04-30T07:33:34.075Z,46.73
2024-04-30T07:34:33.809Z,40.93
2024-04-30T07:35:33.635Z,50.43
2024-04-30T07:36:33.698Z,43.83
2024-04-30T07:37:33.701Z,45.12
2024-04-30T07:38:33.578Z,50.43
2024-04-30T07:39:33.562Z,44.63
2024-04-30T07:40:33.593Z,43.02
2024-04-30T07:41:33.553Z,59.14
2024-04-30T07:42:33.522Z,51.24
2024-04-30T07:43:33.539Z,43.02
2024-04-30T07:44:33.497Z,54.14
2024-04-30T07:45:33.512Z,47.70
2024-04-30T07:46:33.522Z,44.96
2024-04-30T07:47:33.512Z,43.51
2024-04-30T07:48:33.483Z,43.34
2024-04-30T07:49:33.560Z,66.06
2024-04-30T07:50:33.457Z,50.92
2024-04-30T07:51:33.402Z,58.49
2024-04-30T07:52:33.421Z,62.20
2024-04-30T07:53:33.382Z,68.64
2024-04-30T07:54:33.353Z,72.19
2024-04-30T07:55:33.465Z,69.77
2024-04-30T07:56:33.324Z,68.32
2024-04-30T07:57:33.321Z,70.58
2024-04-30T07:58:33.386Z,71.38
2024-04-30T07:59:33.298Z,64.29
2024-04-30T08:00:33.307Z,71.70
2024-04-30T08:01:33.287Z,69.77
2024-04-30T08:02:40.328Z,78.63
2024-04-30T08:03:36.823Z,73.48
2024-04-30T08:04:35.934Z,69.13
2024-04-30T08:05:42.101Z,70.58
2024-04-30T08:06:34.205Z,78.15
2024-04-30T08:07:33.283Z,70.25
2024-04-30T08:08:33.193Z,73.15
2024-04-30T08:09:33.180Z,82.98
2024-04-30T08:10:33.222Z,64.61
2024-04-30T08:11:33.180Z,50.43
2024-04-30T08:12:33.126Z,48.34
2024-04-30T08:13:33.137Z,48.98
2024-04-30T08:14:36.104Z,45.60
2024-04-30T08:15:33.097Z,54.95
2024-04-30T08:16:33.140Z,45.76
2024-04-30T08:17:33.245Z,45.12
2024-04-30T08:18:33.065Z,52.53
2024-04-30T08:19:33.059Z,46.89
2024-04-30T08:20:33.029Z,48.02
2024-04-30T08:21:33.018Z,51.72
2024-04-30T08:22:33.028Z,48.50
2024-04-30T08:23:32.992Z,61.39
2024-04-30T08:24:32.998Z,53.98
2024-04-30T08:25:32.980Z,49.47
2024-04-30T08:26:32.934Z,58.49
2024-04-30T08:27:32.935Z,56.07
2024-04-30T08:28:32.930Z,58.81
2024-04-30T08:29:32.898Z,50.60
2024-04-30T08:30:32.915Z,59.94
2024-04-30T08:31:32.964Z,62.20
2024-04-30T08:32:33.043Z,63.97
2024-04-30T08:33:33.143Z,61.07
2024-04-30T08:34:32.929Z,61.07
2024-04-30T08:35:32.852Z,62.20
2024-04-30T08:36:33.122Z,64.61
2024-04-30T08:37:37.014Z,58.65
2024-04-30T08:38:33.782Z,50.92
2024-04-30T08:39:32.758Z,52.37
2024-04-30T08:40:32.772Z,49.15
2024-04-30T08:41:32.790Z,55.27
2024-04-30T08:42:32.717Z,57.52
2024-04-30T08:43:32.714Z,51.56
2024-04-30T08:44:32.686Z,43.83
2024-04-30T08:45:32.692Z,46.41
2024-04-30T08:46:32.709Z,45.12
2024-04-30T08:47:32.763Z,49.63
2024-04-30T08:48:32.654Z,45.60
2024-04-30T08:49:38.770Z,47.70
2024-04-30T08:50:33.684Z,43.34
2024-04-30T08:51:32.600Z,51.24
2024-04-30T08:52:32.632Z,60.59
2024-04-30T08:53:32.556Z,48.50
2024-04-30T08:54:32.564Z,54.79
2024-04-30T08:55:32.590Z,63.65
2024-04-30T08:56:32.527Z,54.14
2024-04-30T08:57:32.514Z,49.79
2024-04-30T08:58:32.646Z,42.54
2024-04-30T08:59:32.512Z,44.79
2024-04-30T09:00:32.562Z,51.24
2024-04-30T09:01:32.485Z,42.06
2024-04-30T09:02:32.604Z,47.37
2024-04-30T09:03:32.491Z,49.63
2024-04-30T09:04:32.551Z,48.18
2024-04-30T09:05:32.431Z,52.37
2024-04-30T09:06:32.396Z,50.76
2024-04-30T09:07:32.430Z,46.08
2024-04-30T09:08:32.399Z,57.69
2024-04-30T09:09:32.391Z,61.87
2024-04-30T09:10:32.437Z,45.92
2024-04-30T09:11:32.469Z,54.30
2024-04-30T09:12:32.319Z,50.11
2024-04-30T09:13:32.338Z,47.21
2024-04-30T09:14:32.308Z,45.92
2024-04-30T09:15:32.281Z,57.36
2024-04-30T09:16:32.332Z,49.47
2024-04-30T09:17:32.347Z,50.11
2024-04-30T09:18:32.413Z,54.30
2024-04-30T09:19:32.253Z,51.72
2024-04-30T09:20:32.224Z,45.44
2024-04-30T09:21:32.191Z,49.15
2024-04-30T09:22:32.243Z,50.11
2024-04-30T09:23:32.178Z,59.94
2024-04-30T09:24:32.173Z,60.75
2024-04-30T09:25:32.166Z,46.89
2024-04-30T09:26:32.140Z,52.85
2024-04-30T09:27:32.124Z,46.73
2024-04-30T09:28:32.177Z,59.46
2024-04-30T09:29:32.081Z,48.02
2024-04-30T09:30:32.074Z,48.02
2024-04-30T09:31:32.084Z,50.27
2024-04-30T09:32:32.131Z,49.95
2024-04-30T09:33:32.198Z,48.02
2024-04-30T09:34:32.065Z,45.44
2024-04-30T09:35:32.007Z,43.99
2024-04-30T09:36:32.019Z,48.02
2024-04-30T09:37:32.037Z,49.95
2024-04-30T09:38:31.968Z,49.15
2024-04-30T09:39:31.993Z,58.81
2024-04-30T09:40:31.983Z,70.90
2024-04-30T09:41:31.982Z,68.96
2024-04-30T09:42:31.964Z,58.97
2024-04-30T09:43:31.932Z,59.94
2024-04-30T09:44:31.920Z,76.22
2024-04-30T09:45:31.870Z,69.77
2024-04-30T09:46:31.972Z,71.87
2024-04-30T09:47:31.958Z,60.42
2024-04-30T09:48:31.853Z,72.03
2024-04-30T09:49:31.847Z,74.28
2024-04-30T09:50:31.828Z,71.87
2024-04-30T09:51:31.828Z,61.87
2024-04-30T09:52:31.825Z,62.52
2024-04-30T09:53:31.757Z,71.70
2024-04-30T09:54:31.777Z,68.16
2024-04-30T09:55:31.827Z,66.23
2024-04-30T09:56:31.734Z,61.87
2024-04-30T09:57:31.723Z,45.28
2024-04-30T09:58:31.773Z,46.25
2024-04-30T09:59:31.753Z,62.68
2024-04-30T10:00:31.821Z,61.23
2024-04-30T10:01:31.679Z,61.39
2024-04-30T10:02:31.713Z,49.15
2024-04-30T10:03:31.640Z,43.83
2024-04-30T10:04:31.744Z,47.21
2024-04-30T10:05:31.637Z,47.21
2024-04-30T10:06:31.610Z,65.10
2024-04-30T10:07:31.677Z,68.16
2024-04-30T10:08:31.587Z,55.27
2024-04-30T10:09:31.590Z,49.15
2024-04-30T10:10:31.635Z,67.19
2024-04-30T10:11:31.603Z,55.27
2024-04-30T10:12:31.826Z,68.80
2024-04-30T10:13:31.514Z,59.94
2024-04-30T10:14:31.589Z,68.32
2024-04-30T10:15:31.490Z,58.97
2024-04-30T10:16:31.485Z,69.61
2024-04-30T10:17:31.519Z,61.87
2024-04-30T10:18:34.324Z,63.16
2024-04-30T10:19:31.469Z,61.39
2024-04-30T10:20:31.412Z,54.30
2024-04-30T10:21:31.438Z,47.70
2024-04-30T10:22:31.416Z,52.53
2024-04-30T10:23:31.445Z,68.64
2024-04-30T10:24:31.366Z,56.40
2024-04-30T10:25:31.446Z,58.97
2024-04-30T10:26:31.353Z,56.40
2024-04-30T10:27:31.318Z,57.52
2024-04-30T10:28:31.412Z,56.40
2024-04-30T10:29:31.295Z,54.30
2024-04-30T10:30:31.300Z,56.56
2024-04-30T10:31:31.283Z,59.14
2024-04-30T10:32:31.327Z,57.36
2024-04-30T10:33:31.457Z,58.01
2024-04-30T10:34:31.305Z,58.01
2024-04-30T10:35:31.250Z,49.15
2024-04-30T10:36:31.230Z,63.65
2024-04-30T10:37:31.360Z,56.56
2024-04-30T10:38:31.181Z,60.26
2024-04-30T10:39:31.162Z,56.07
2024-04-30T10:40:31.244Z,62.04
2024-04-30T10:41:31.182Z,54.14
2024-04-30T10:42:31.150Z,60.75
2024-04-30T10:43:31.215Z,51.88
2024-04-30T10:44:31.124Z,62.20
2024-04-30T10:45:31.084Z,52.37
2024-04-30T10:46:31.215Z,55.59
2024-04-30T10:47:31.116Z,57.36
2024-04-30T10:48:31.150Z,63.97
2024-04-30T10:49:31.083Z,61.55
2024-04-30T10:50:31.064Z,62.04
2024-04-30T10:51:31.028Z,54.95
2024-04-30T10:52:31.092Z,65.74
2024-04-30T10:53:31.057Z,58.97
2024-04-30T10:54:30.979Z,59.30
2024-04-30T10:55:31.035Z,63.49
2024-04-30T10:56:31.054Z,61.23
2024-04-30T10:57:30.931Z,56.40
2024-04-30T10:58:30.982Z,63.16
2024-04-30T10:59:30.938Z,60.26
2024-04-30T11:00:31.008Z,56.24
2024-04-30T11:01:30.981Z,55.27
2024-04-30T11:02:30.924Z,60.91
2024-04-30T11:03:30.893Z,59.78
2024-04-30T11:04:30.967Z,55.43
2024-04-30T11:05:31.055Z,61.23
2024-04-30T11:06:30.987Z,79.28
2024-04-30T11:07:30.835Z,58.17
2024-04-30T11:08:30.792Z,61.55
2024-04-30T11:09:30.775Z,57.52
2024-04-30T11:10:30.828Z,60.26
2024-04-30T11:11:30.781Z,70.74
2024-04-30T11:12:30.731Z,59.46
2024-04-30T11:13:30.811Z,61.23
2024-04-30T11:14:30.723Z,72.83
2024-04-30T11:15:30.703Z,61.07
2024-04-30T11:16:30.744Z,75.57
2024-04-30T11:17:30.717Z,67.51
2024-04-30T11:18:30.863Z,70.58
2024-04-30T11:19:30.668Z,68.64
2024-04-30T11:20:30.633Z,70.25
2024-04-30T11:21:30.611Z,56.56
2024-04-30T11:22:30.648Z,60.42
2024-04-30T11:23:30.583Z,59.94
2024-04-30T11:24:30.595Z,59.30
2024-04-30T11:25:30.598Z,43.83
2024-04-30T11:26:30.589Z,50.76
2024-04-30T11:27:30.540Z,58.33
2024-04-30T11:28:30.550Z,44.96
2024-04-30T11:29:35.593Z,44.63
2024-04-30T11:30:31.505Z,47.05
2024-04-30T11:31:30.542Z,43.83
2024-04-30T11:32:30.552Z,42.22
2024-04-30T11:33:31.178Z,57.36
2024-04-30T11:34:30.478Z,49.79
2024-04-30T11:35:30.439Z,48.50
2024-04-30T11:36:30.430Z,64.29
2024-04-30T11:37:30.475Z,57.20
2024-04-30T11:38:30.440Z,55.27
2024-04-30T11:39:30.366Z,48.18
2024-04-30T11:40:30.427Z,56.40
2024-04-30T11:41:30.347Z,55.27
2024-04-30T11:42:34.579Z,60.42
2024-04-30T11:43:31.371Z,45.44
2024-04-30T11:44:30.329Z,52.21
2024-04-30T11:45:30.308Z,52.85
2024-04-30T11:46:30.328Z,56.56
2024-04-30T11:47:30.407Z,52.85
2024-04-30T11:48:30.488Z,56.40
2024-04-30T11:49:30.276Z,48.34
2024-04-30T11:50:30.249Z,52.21
2024-04-30T11:51:30.231Z,48.98
2024-04-30T11:52:30.260Z,54.30
2024-04-30T11:53:30.270Z,56.07
2024-04-30T11:54:30.184Z,56.24
2024-04-30T11:55:30.200Z,52.85
2024-04-30T11:56:30.206Z,53.50
2024-04-30T11:57:30.172Z,50.92
2024-04-30T11:58:30.161Z,59.14
2024-04-30T11:59:30.158Z,53.98
2024-04-30T12:00:30.128Z,55.11
2024-04-30T12:01:30.143Z,58.17
2024-04-30T12:02:30.174Z,52.05
2024-04-30T12:03:30.068Z,58.17
2024-04-30T12:04:30.114Z,57.04
2024-04-30T12:05:30.110Z,54.79
2024-04-30T12:06:30.130Z,51.56
2024-04-30T12:07:30.039Z,56.88
2024-04-30T12:08:30.015Z,59.62
2024-04-30T12:09:30.013Z,60.10
2024-04-30T12:10:30.060Z,66.87
2024-04-30T12:11:30.047Z,61.23
2024-04-30T12:12:29.973Z,59.30
2024-04-30T12:13:29.974Z,60.59
2024-04-30T12:14:29.929Z,59.46
2024-04-30T12:15:29.938Z,63.81
2024-04-30T12:16:29.975Z,49.95
2024-04-30T12:17:30.042Z,55.43
2024-04-30T12:18:29.933Z,50.43
2024-04-30T12:19:29.951Z,52.85
2024-04-30T12:20:29.871Z,54.30
2024-04-30T12:21:29.851Z,57.69
2024-04-30T12:22:29.862Z,58.65
2024-04-30T12:23:29.827Z,56.24
2024-04-30T12:24:29.819Z,66.87
2024-04-30T12:25:29.815Z,58.17
2024-04-30T12:26:29.786Z,52.53
2024-04-30T12:27:29.780Z,65.10
2024-04-30T12:28:29.791Z,60.59
2024-04-30T12:29:29.774Z,60.75
2024-04-30T12:30:29.736Z,65.26
2024-04-30T12:31:29.754Z,59.46
2024-04-30T12:32:29.789Z,70.74
2024-04-30T12:33:29.729Z,56.07
2024-04-30T12:34:29.797Z,64.78
2024-04-30T12:35:29.679Z,57.20
2024-04-30T12:36:29.642Z,65.26
2024-04-30T12:37:29.730Z,70.90
2024-04-30T12:38:29.643Z,65.26
2024-04-30T12:39:29.640Z,76.22
2024-04-30T12:40:29.678Z,59.46
2024-04-30T12:41:29.593Z,54.62
2024-04-30T12:42:29.579Z,70.74
2024-04-30T12:43:29.627Z,60.75
2024-04-30T12:44:29.547Z,58.17
2024-04-30T12:45:29.561Z,51.24
2024-04-30T12:46:29.533Z,58.97
2024-04-30T12:47:29.602Z,61.87
2024-04-30T12:48:29.557Z,63.00
2024-04-30T12:49:29.526Z,59.94
2024-04-30T12:50:29.469Z,69.77
2024-04-30T12:51:29.519Z,57.85
2024-04-30T12:52:29.493Z,55.59
2024-04-30T12:53:29.449Z,60.10
2024-04-30T12:54:29.422Z,65.90